Time;durP1;ratioP1;P1;durP2;ratioP2;P2;SDS_P1;SDS_P2;PMS_P1;PMS_P2;Temp;Humidity;BMP_temperature;BMP_pressure;BME280_temperature;BME280_humidity;BME280_pressure;Samples;Min_cycle;Max_cycle;Signal;HPM_P1;HPM_P2
2023/08/10 00:01:18;;;;;;;0.10;0.10;;;;;;;22.43;58.38;101102.72;7356004;19;20014;-57
2023/08/10 00:03:44;;;;;;;0.10;0.10;;;;;;;22.38;57.86;101105.69;7353039;19;20880;-57
2023/08/10 00:06:10;;;;;;;0.10;0.10;;;;;;;22.33;58.00;101101.63;7354238;19;20010;-57
2023/08/10 00:08:36;;;;;;;0.10;0.10;;;;;;;22.28;58.38;101102.75;7349818;19;20002;-55
2023/08/10 00:11:02;;;;;;;0.10;0.10;;;;;;;22.22;58.25;101099.66;7354018;19;20033;-57
2023/08/10 00:13:27;;;;;;;0.10;0.10;;;;;;;22.19;58.35;101090.06;7350658;19;20651;-56
2023/08/10 00:15:53;;;;;;;0.10;0.10;;;;;;;22.14;58.14;101102.81;7352100;19;20769;-56
2023/08/10 00:18:19;;;;;;;0.10;0.10;;;;;;;22.09;58.54;101090.72;7350614;19;20760;-56
2023/08/10 00:20:44;;;;;;;0.00;0.00;;;;;;;22.01;58.73;101092.09;7351484;19;20359;-57
2023/08/10 00:23:10;;;;;;;0.10;0.10;;;;;;;21.88;58.48;101085.84;7353129;19;20774;-57
2023/08/10 00:25:36;;;;;;;0.10;0.10;;;;;;;21.93;58.58;101093.53;7352590;19;20010;-56
2023/08/10 00:28:02;;;;;;;0.00;0.00;;;;;;;21.88;58.69;101099.13;7354318;19;20025;-56
2023/08/10 00:30:28;;;;;;;0.00;0.00;;;;;;;21.79;58.79;101094.38;7353344;19;20008;-56
2023/08/10 00:32:53;;;;;;;0.00;0.00;;;;;;;21.81;59.05;101100.47;7356071;19;20050;-55
2023/08/10 00:35:18;;;;;;;0.10;0.10;;;;;;;21.76;58.56;101103.44;7351616;19;20359;-56
2023/08/10 00:37:44;;;;;;;0.10;0.10;;;;;;;21.63;58.87;101081.22;7353680;19;20010;-56
2023/08/10 00:40:12;;;;;;;0.00;0.00;;;;;;;21.69;58.84;101098.56;7351534;19;20058;-57
2023/08/10 00:42:38;;;;;;;0.00;0.00;;;;;;;21.66;58.88;101096.97;7354408;19;20014;-57
2023/08/10 00:45:04;;;;;;;0.00;0.00;;;;;;;21.62;58.81;101090.16;7352381;19;20078;-56
2023/08/10 00:47:30;;;;;;;0.00;0.00;;;;;;;21.57;59.25;101086.06;7352953;19;20030;-56
2023/08/10 00:49:56;;;;;;;0.08;0.08;;;;;;;21.53;58.96;101093.38;7353988;19;20855;-57
2023/08/10 00:52:21;;;;;;;0.00;0.00;;;;;;;21.49;59.30;101087.41;7346153;19;20006;-56
2023/08/10 00:54:46;;;;;;;0.00;0.00;;;;;;;21.47;58.82;101091.09;7332455;19;20026;-56
2023/08/10 00:57:12;;;;;;;0.10;0.10;;;;;;;21.33;59.30;101072.50;7348760;19;20078;-56
2023/08/10 00:59:38;;;;;;;0.00;0.00;;;;;;;21.39;58.91;101096.91;7351744;19;20863;-56
2023/08/10 01:02:04;;;;;;;0.10;0.10;;;;;;;21.27;58.96;101084.31;7349073;19;20014;-56
2023/08/10 01:04:29;;;;;;;0.10;0.10;;;;;;;21.32;59.21;101097.34;7352209;19;20010;-55
2023/08/10 01:07:05;;;;;;;0.00;0.00;;;;;;;21.19;59.01;101076.00;7353105;19;20046;-57
2023/08/10 01:09:49;;;;;;;0.05;0.05;;;;;;;21.28;58.90;101086.03;7350435;19;20094;-54
2023/08/10 01:12:28;;;;;;;0.10;0.10;;;;;;;21.17;58.78;101073.41;7343520;19;21104;-57
2023/08/10 01:15:16;;;;;;;0.00;0.00;;;;;;;21.20;58.35;101067.91;7348755;19;20014;-57
2023/08/10 01:17:51;;;;;;;0.00;0.00;;;;;;;21.15;59.24;101069.16;7350648;19;20868;-56
2023/08/10 01:20:19;;;;;;;0.10;0.10;;;;;;;21.10;59.17;101071.22;7347267;19;20058;-55
2023/08/10 01:23:01;;;;;;;0.03;0.03;;;;;;;21.08;59.30;101073.09;7350483;19;20013;-57
2023/08/10 01:25:27;;;;;;;0.00;0.00;;;;;;;20.96;59.47;101054.31;7351267;19;20012;-56
2023/08/10 01:27:54;;;;;;;0.00;0.00;;;;;;;20.93;59.54;101056.31;7352127;19;20033;-57
2023/08/10 01:30:20;;;;;;;0.10;0.10;;;;;;;20.95;59.91;101070.34;7349878;19;20007;-57
2023/08/10 01:32:45;;;;;;;0.10;0.10;;;;;;;20.88;59.68;101061.91;7351764;19;20007;-58
2023/08/10 01:35:11;;;;;;;0.00;0.00;;;;;;;20.88;59.96;101061.03;7349768;19;20022;-57
2023/08/10 01:37:37;;;;;;;0.00;0.00;;;;;;;20.84;59.84;101065.69;7351027;19;20017;-57
2023/08/10 01:40:07;;;;;;;0.00;0.00;;;;;;;20.81;59.84;101070.31;7351963;19;20028;-56
2023/08/10 01:42:32;;;;;;;0.00;0.00;;;;;;;20.59;60.13;101030.94;7350254;19;20002;-57
2023/08/10 01:44:57;;;;;;;0.00;0.00;;;;;;;20.63;59.95;101045.72;7352444;19;20038;-56
2023/08/10 01:47:28;;;;;;;0.00;0.00;;;;;;;20.73;59.50;101062.78;7352412;19;20017;-57
2023/08/10 01:50:00;;;;;;;0.10;0.10;;;;;;;20.70;59.78;101063.00;7351044;19;20030;-56
2023/08/10 01:52:31;;;;;;;0.10;0.10;;;;;;;20.66;59.56;101058.81;7349242;19;20085;-56
2023/08/10 01:54:58;;;;;;;0.00;0.00;;;;;;;20.61;60.22;101063.53;7351352;19;20048;-57
2023/08/10 01:57:23;;;;;;;0.10;0.10;;;;;;;20.59;60.32;101065.44;7350592;19;20446;-54
2023/08/10 01:59:49;;;;;;;0.10;0.10;;;;;;;20.57;60.56;101062.00;7349297;19;20035;-56
2023/08/10 02:02:14;;;;;;;0.10;0.10;;;;;;;20.55;60.50;101056.78;7352575;19;20018;-56
2023/08/10 02:04:40;;;;;;;0.00;0.00;;;;;;;20.54;60.84;101055.09;7352039;19;20484;-56
2023/08/10 02:07:05;;;;;;;0.00;0.00;;;;;;;20.56;60.33;101052.34;7353175;19;20048;-56
2023/08/10 02:09:32;;;;;;;0.00;0.00;;;;;;;20.56;60.47;101060.28;7349501;19;20011;-56
2023/08/10 02:11:57;;;;;;;0.00;0.00;;;;;;;20.56;60.39;101055.00;7350554;19;20023;-57
2023/08/10 02:14:22;;;;;;;0.00;0.00;;;;;;;20.54;60.64;101060.41;7350265;19;20015;-57
2023/08/10 02:16:48;;;;;;;0.00;0.00;;;;;;;20.54;60.78;101067.50;7352085;19;20003;-55
2023/08/10 02:19:13;;;;;;;0.00;0.00;;;;;;;20.52;60.29;101061.41;7350736;19;20015;-57
2023/08/10 02:21:39;;;;;;;0.10;0.10;;;;;;;20.50;60.47;101056.22;7349941;19;20015;-57
2023/08/10 02:24:04;;;;;;;0.10;0.10;;;;;;;20.47;60.61;101057.22;7346128;19;20027;-55
2023/08/10 02:26:30;;;;;;;0.00;0.00;;;;;;;20.43;60.61;101050.38;7351985;19;20011;-57
2023/08/10 02:28:56;;;;;;;0.00;0.00;;;;;;;20.42;60.42;101045.16;7354533;19;20102;-56
2023/08/10 02:31:24;;;;;;;0.00;0.00;;;;;;;20.40;60.47;101050.56;7353945;19;20011;-57
2023/08/10 02:33:49;;;;;;;0.00;0.00;;;;;;;20.36;60.67;101048.16;7356617;19;20109;-55
2023/08/10 02:36:14;;;;;;;0.03;0.03;;;;;;;20.33;60.45;101049.22;7358853;19;20129;-57
2023/08/10 02:38:40;;;;;;;0.00;0.00;;;;;;;20.29;60.27;101031.75;7358039;19;20093;-57
2023/08/10 02:41:05;;;;;;;0.05;0.05;;;;;;;20.21;60.29;101026.88;7357056;19;20010;-55
2023/08/10 02:43:31;;;;;;;0.00;0.00;;;;;;;20.22;60.47;101041.00;7356454;19;20048;-57
2023/08/10 02:45:56;;;;;;;0.00;0.00;;;;;;;20.19;60.73;101044.69;7360370;19;20010;-56
2023/08/10 02:48:21;;;;;;;0.00;0.00;;;;;;;20.14;60.36;101043.25;7354573;19;20025;-57
2023/08/10 02:50:47;;;;;;;0.08;0.08;;;;;;;20.12;61.09;101042.47;7354173;19;20017;-56
2023/08/10 02:53:13;;;;;;;0.05;0.05;;;;;;;20.08;60.88;101043.59;7353780;19;20010;-55
2023/08/10 02:55:38;;;;;;;0.00;0.00;;;;;;;20.05;60.72;101034.00;7354012;19;20017;-56
2023/08/10 02:58:03;;;;;;;0.00;0.00;;;;;;;20.02;61.06;101028.03;7358099;19;20011;-57
2023/08/10 03:00:29;;;;;;;0.00;0.00;;;;;;;19.90;61.13;101003.94;7354725;19;20378;-57
2023/08/10 03:02:54;;;;;;;0.00;0.00;;;;;;;19.93;60.83;101017.00;7356848;19;20018;-56
2023/08/10 03:05:20;;;;;;;0.10;0.10;;;;;;;19.91;60.92;101021.53;7353213;19;20017;-56
2023/08/10 03:07:46;;;;;;;0.05;0.05;;;;;;;19.75;61.95;100988.88;7357986;19;20442;-57
2023/08/10 03:10:11;;;;;;;0.00;0.00;;;;;;;19.79;62.38;101016.94;7355388;19;20014;-55
2023/08/10 03:12:37;;;;;;;0.00;0.00;;;;;;;19.81;61.76;101009.75;7350719;19;20010;-57
2023/08/10 03:15:05;;;;;;;0.10;0.10;;;;;;;19.79;61.77;101016.94;7357642;19;20011;-56
2023/08/10 03:17:31;;;;;;;0.08;0.08;;;;;;;19.76;62.82;101014.44;7356485;19;20022;-56
2023/08/10 03:19:57;;;;;;;0.00;0.00;;;;;;;19.75;62.71;101012.75;7334960;19;20739;-57
2023/08/10 03:22:25;;;;;;;0.08;0.08;;;;;;;19.72;62.69;101007.63;7356390;19;20122;-57
2023/08/10 03:24:52;;;;;;;0.00;0.00;;;;;;;19.71;63.10;101005.91;7357639;19;20813;-57
2023/08/10 03:27:17;;;;;;;0.08;0.08;;;;;;;19.70;63.12;101007.69;7356224;19;20014;-57
2023/08/10 03:29:42;;;;;;;0.00;0.00;;;;;;;19.67;63.02;100999.09;7351939;19;20010;-57
2023/08/10 03:32:08;;;;;;;0.10;0.10;;;;;;;19.68;63.58;100992.84;7358832;19;20010;-56
2023/08/10 03:34:33;;;;;;;0.00;0.00;;;;;;;19.67;63.31;100991.13;7358494;19;20015;-57
2023/08/10 03:36:59;;;;;;;0.10;0.10;;;;;;;19.68;63.54;100990.19;7353698;19;20006;-56
2023/08/10 03:39:24;;;;;;;0.05;0.05;;;;;;;19.67;63.56;100988.50;7358384;19;20013;-57
2023/08/10 03:41:50;;;;;;;0.00;0.00;;;;;;;19.67;63.06;100989.34;7354366;19;20007;-57
2023/08/10 03:44:16;;;;;;;0.00;0.00;;;;;;;19.68;65.19;100979.59;7354121;19;20019;-57
2023/08/10 03:46:42;;;;;;;0.00;0.00;;;;;;;19.66;65.39;100968.22;7356818;19;20010;-57
2023/08/10 03:49:07;;;;;;;0.10;0.10;;;;;;;19.67;65.54;100964.63;7359390;19;20018;-57
2023/08/10 03:51:32;;;;;;;0.00;0.00;;;;;;;19.63;66.27;100963.09;7350098;19;20010;-57
2023/08/10 03:53:58;;;;;;;0.10;0.10;;;;;;;19.59;65.56;100961.53;7358550;19;20547;-57
2023/08/10 03:56:23;;;;;;;0.08;0.08;;;;;;;19.60;65.92;100968.56;7355805;19;20010;-57
2023/08/10 03:58:48;;;;;;;0.08;0.08;;;;;;;19.58;66.64;100967.75;7358371;19;20054;-55
2023/08/10 04:01:14;;;;;;;0.10;0.10;;;;;;;19.57;66.63;100968.72;7356133;19;20048;-57
2023/08/10 04:03:39;;;;;;;0.00;0.00;;;;;;;19.55;66.28;100965.28;7354146;19;20014;-56
2023/08/10 04:06:05;;;;;;;0.10;0.10;;;;;;;19.55;65.68;100965.28;7359620;19;20015;-57
2023/08/10 04:08:30;;;;;;;0.00;0.00;;;;;;;19.55;66.76;100973.22;7353422;19;20035;-55
2023/08/10 04:10:55;;;;;;;0.00;0.00;;;;;;;19.53;66.08;100962.72;7358109;19;20489;-55
2023/08/10 04:13:21;;;;;;;0.08;0.08;;;;;;;19.55;65.76;100966.13;7353047;19;20450;-56
2023/08/10 04:15:49;;;;;;;0.10;0.10;;;;;;;19.56;65.71;100967.84;7356991;19;20015;-57
2023/08/10 04:18:14;;;;;;;0.10;0.10;;;;;;;19.57;65.36;100958.97;7352323;19;20044;-56
2023/08/10 04:20:39;;;;;;;0.10;0.10;;;;;;;19.60;65.30;100960.59;7358035;19;20077;-57
2023/08/10 04:23:05;;;;;;;0.00;0.00;;;;;;;19.58;65.39;100943.94;7357000;19;20025;-56
2023/08/10 04:25:30;;;;;;;0.03;0.03;;;;;;;19.66;64.97;100952.31;7356120;19;20006;-56
2023/08/10 04:27:56;;;;;;;0.10;0.10;;;;;;;19.69;65.12;100946.84;7357252;19;20009;-57
2023/08/10 04:30:22;;;;;;;0.05;0.05;;;;;;;19.70;65.18;100943.25;7354631;19;20085;-57
2023/08/10 04:32:48;;;;;;;0.00;0.00;;;;;;;19.69;66.28;100936.25;7348648;19;20034;-55
2023/08/10 04:35:13;;;;;;;0.10;0.10;;;;;;;19.73;66.31;100943.09;7356321;19;20014;-56
2023/08/10 04:37:39;;;;;;;0.00;0.00;;;;;;;19.72;66.38;100941.38;7353510;19;20095;-56
2023/08/10 04:40:09;;;;;;;0.00;0.00;;;;;;;19.41;66.72;100890.13;7357534;19;20014;-56
2023/08/10 04:42:37;;;;;;;0.10;0.10;;;;;;;19.68;66.66;100937.19;7352489;19;20017;-57
2023/08/10 04:45:04;;;;;;;0.10;0.10;;;;;;;19.56;66.76;100914.84;7357054;19;20051;-57
2023/08/10 04:47:30;;;;;;;0.10;0.10;;;;;;;19.63;67.26;100937.47;7354812;19;20322;-56
2023/08/10 04:49:55;;;;;;;0.10;0.10;;;;;;;19.62;67.44;100946.34;7357734;19;20474;-57
2023/08/10 04:52:21;;;;;;;0.10;0.10;;;;;;;19.59;67.23;100950.94;7350559;19;20013;-57
2023/08/10 04:54:46;;;;;;;0.10;0.10;;;;;;;19.57;67.56;100958.13;7343453;19;20722;-57
2023/08/10 04:57:12;;;;;;;0.00;0.00;;;;;;;19.55;67.27;100959.97;7353907;19;20014;-56
2023/08/10 04:59:37;;;;;;;0.10;0.10;;;;;;;19.53;67.38;100959.22;7354674;19;20093;-56
2023/08/10 05:02:04;;;;;;;0.00;0.00;;;;;;;19.51;67.43;100964.59;7353776;19;20014;-56
2023/08/10 05:04:30;;;;;;;0.10;0.10;;;;;;;19.49;68.01;100970.91;7357798;19;20018;-55
2023/08/10 05:06:55;;;;;;;0.00;0.00;;;;;;;19.45;67.81;100971.06;7353418;19;20017;-56
2023/08/10 05:09:21;;;;;;;0.10;0.10;;;;;;;19.45;68.22;100968.44;7356125;19;20022;-56
2023/08/10 05:11:47;;;;;;;0.00;0.00;;;;;;;19.43;68.09;100962.38;7354180;19;20833;-58
2023/08/10 05:14:12;;;;;;;0.10;0.10;;;;;;;19.40;67.99;100970.47;7353556;19;20832;-56
2023/08/10 05:16:37;;;;;;;0.10;0.10;;;;;;;19.37;68.43;100960.06;7354604;19;20010;-57
2023/08/10 05:19:03;;;;;;;0.00;0.00;;;;;;;19.46;68.66;100966.63;7353385;19;20336;-57
2023/08/10 05:21:28;;;;;;;0.00;0.00;;;;;;;19.47;68.46;100964.88;7355703;19;20733;-56
2023/08/10 05:23:54;;;;;;;0.10;0.10;;;;;;;19.47;68.66;100962.22;7350303;19;20014;-57
2023/08/10 05:26:19;;;;;;;0.03;0.03;;;;;;;19.48;68.62;100970.06;7356571;19;20782;-55
2023/08/10 05:28:45;;;;;;;0.05;0.05;;;;;;;19.49;68.75;100965.63;7350412;19;20825;-56
2023/08/10 05:31:11;;;;;;;0.00;0.00;;;;;;;19.51;69.01;100958.44;7354734;19;20707;-56
2023/08/10 05:33:36;;;;;;;0.10;0.10;;;;;;;19.52;69.25;100962.81;7351727;19;20068;-57
2023/08/10 05:36:02;;;;;;;0.10;0.10;;;;;;;19.53;69.73;100967.16;7355941;19;20458;-57
2023/08/10 05:38:28;;;;;;;0.00;0.00;;;;;;;19.55;69.35;100975.88;7352134;19;20006;-56
2023/08/10 05:40:55;;;;;;;0.10;0.10;;;;;;;19.57;69.34;100974.00;7356214;19;20462;-57
2023/08/10 05:43:20;;;;;;;0.10;0.10;;;;;;;19.59;70.03;100966.81;7349965;19;20007;-58
2023/08/10 05:45:46;;;;;;;0.05;0.05;;;;;;;19.62;69.75;100972.00;7354948;19;20017;-57
2023/08/10 05:48:12;;;;;;;0.10;0.10;;;;;;;19.66;69.58;100978.81;7355363;19;20070;-57
2023/08/10 05:50:38;;;;;;;0.10;0.10;;;;;;;19.68;69.83;100974.28;7353698;19;20018;-57
2023/08/10 05:53:05;;;;;;;0.10;0.10;;;;;;;19.70;70.18;100964.44;7351639;19;20014;-56
2023/08/10 05:55:31;;;;;;;0.10;0.10;;;;;;;19.73;69.64;100961.63;7352787;19;20027;-57
2023/08/10 05:57:56;;;;;;;0.00;0.00;;;;;;;19.76;69.69;100964.09;7349238;19;20011;-57
2023/08/10 06:00:22;;;;;;;0.00;0.00;;;;;;;19.82;70.11;100974.38;7338785;19;20027;-56
2023/08/10 06:02:48;;;;;;;0.10;0.10;;;;;;;19.86;69.99;100975.88;7342252;19;20057;-57
2023/08/10 06:05:14;;;;;;;0.10;0.10;;;;;;;19.89;69.75;100970.41;7350837;19;20010;-56
2023/08/10 06:07:41;;;;;;;0.10;0.10;;;;;;;19.93;69.68;100979.06;7355310;19;20044;-58
2023/08/10 06:10:06;;;;;;;0.10;0.10;;;;;;;19.98;70.04;100973.50;7353522;19;20022;-56
2023/08/10 06:12:32;;;;;;;0.00;0.00;;;;;;;19.98;69.67;100973.50;7355822;19;20009;-56
2023/08/10 06:14:58;;;;;;;0.10;0.10;;;;;;;20.04;69.86;100981.09;7351837;19;20041;-56
2023/08/10 06:17:24;;;;;;;0.00;0.00;;;;;;;20.08;69.70;100979.97;7355059;19;20018;-56
2023/08/10 06:19:53;;;;;;;0.10;0.10;;;;;;;20.03;69.77;100966.13;7350142;19;20513;-55
2023/08/10 06:22:19;;;;;;;0.10;0.10;;;;;;;20.02;69.93;100961.75;7352005;19;20018;-57
2023/08/10 06:24:45;;;;;;;0.10;0.10;;;;;;;20.14;69.86;100975.16;7328731;19;20566;-57
2023/08/10 06:27:11;;;;;;;0.10;0.10;;;;;;;20.17;69.77;100974.09;7349684;19;20090;-58
2023/08/10 06:29:36;;;;;;;0.10;0.10;;;;;;;20.19;69.53;100982.84;7350159;19;20086;-57
2023/08/10 06:32:09;;;;;;;0.10;0.10;;;;;;;20.28;69.68;100987.63;7352032;19;20017;-54
2023/08/10 06:34:35;;;;;;;0.00;0.00;;;;;;;20.29;69.68;100989.31;7349618;19;20491;-56
2023/08/10 06:37:00;;;;;;;0.00;0.00;;;;;;;20.29;69.30;100978.72;7352200;19;20021;-55
2023/08/10 06:39:27;;;;;;;0.00;0.00;;;;;;;20.38;69.74;100980.84;7351427;19;20045;-55
2023/08/10 06:41:53;;;;;;;0.10;0.10;;;;;;;20.40;69.96;100976.28;7350283;19;20011;-55
2023/08/10 06:44:19;;;;;;;0.00;0.00;;;;;;;20.37;69.61;100949.91;7345549;19;20046;-57
2023/08/10 06:46:45;;;;;;;0.10;0.10;;;;;;;20.49;69.90;100966.09;7352476;19;20367;-52
2023/08/10 06:49:10;;;;;;;0.10;0.10;;;;;;;20.54;69.23;100964.88;7349662;19;20014;-57
2023/08/10 06:51:35;;;;;;;0.10;0.10;;;;;;;20.57;69.41;100962.03;7352847;19;20038;-57
2023/08/10 06:54:01;;;;;;;0.10;0.10;;;;;;;20.59;69.52;100948.69;7344723;19;20010;-56
2023/08/10 06:56:26;;;;;;;0.00;0.00;;;;;;;20.63;68.77;100944.88;7354409;19;20018;-55
2023/08/10 06:58:52;;;;;;;0.10;0.10;;;;;;;20.66;68.91;100950.00;7346099;19;20007;-57
2023/08/10 07:01:17;;;;;;;0.10;0.10;;;;;;;20.68;68.92;100950.75;7351955;19;20033;-57
2023/08/10 07:03:43;;;;;;;0.10;0.10;;;;;;;20.70;68.90;100940.91;7346724;19;20030;-57
2023/08/10 07:06:08;;;;;;;0.03;0.03;;;;;;;20.73;68.37;100936.28;7349368;19;20824;-57
2023/08/10 07:08:34;;;;;;;0.00;0.00;;;;;;;20.76;68.87;100927.28;7347343;19;20014;-57
2023/08/10 07:11:03;;;;;;;0.05;0.05;;;;;;;20.83;68.39;100936.53;7347589;19;20367;-57
2023/08/10 07:13:29;;;;;;;0.10;0.10;;;;;;;20.82;69.12;100934.84;7350431;19;20110;-57
2023/08/10 07:15:54;;;;;;;0.10;0.10;;;;;;;20.85;69.07;100945.28;7347013;19;20019;-56
2023/08/10 07:18:20;;;;;;;0.10;0.10;;;;;;;20.89;69.39;100935.34;7353477;19;20133;-57
2023/08/10 07:20:45;;;;;;;0.10;0.10;;;;;;;20.93;69.56;100932.41;7356668;19;20090;-57
2023/08/10 07:23:11;;;;;;;0.10;0.10;;;;;;;20.98;69.41;100925.00;7354574;19;20017;-57
2023/08/10 07:25:37;;;;;;;0.10;0.10;;;;;;;21.02;69.74;100914.19;7355997;19;20125;-57
2023/08/10 07:28:07;;;;;;;0.10;0.10;;;;;;;21.11;69.45;100913.59;7357811;19;20010;-58
2023/08/10 07:30:32;;;;;;;0.10;0.10;;;;;;;21.07;69.50;100906.78;7354653;19;20010;-57
2023/08/10 07:32:57;;;;;;;0.05;0.05;;;;;;;21.22;69.22;100927.91;7353358;19;20776;-56
2023/08/10 07:35:23;;;;;;;0.10;0.10;;;;;;;21.28;69.24;100931.13;7355252;19;20025;-56
2023/08/10 07:37:49;;;;;;;0.05;0.05;;;;;;;21.33;68.59;100937.88;7353421;19;20766;-55
2023/08/10 07:40:15;;;;;;;0.10;0.10;;;;;;;21.36;68.90;100924.41;7356618;19;20030;-55
2023/08/10 07:42:40;;;;;;;0.10;0.10;;;;;;;21.37;68.66;100918.13;7357769;19;20011;-57
2023/08/10 07:45:09;;;;;;;0.05;0.05;;;;;;;21.39;68.39;100916.25;7353073;19;20010;-55
2023/08/10 07:47:35;;;;;;;0.10;0.10;;;;;;;21.40;68.48;100915.28;7356134;19;20688;-56
2023/08/10 07:50:00;;;;;;;0.10;0.10;;;;;;;21.41;68.42;100922.28;7350080;19;20014;-57
2023/08/10 07:52:26;;;;;;;0.10;0.10;;;;;;;21.41;68.40;100938.25;7355516;19;20010;-57
2023/08/10 07:54:51;;;;;;;0.10;0.10;;;;;;;21.40;68.23;100939.19;7353046;19;20018;-57
2023/08/10 07:57:17;;;;;;;0.00;0.00;;;;;;;21.42;68.41;100947.06;7356488;19;20006;-56
2023/08/10 07:59:42;;;;;;;0.10;0.10;;;;;;;21.41;68.00;100938.25;7354821;19;20014;-56
2023/08/10 08:02:10;;;;;;;0.03;0.03;;;;;;;21.42;68.02;100939.94;7355300;19;20685;-57
2023/08/10 08:04:36;;;;;;;0.10;0.10;;;;;;;21.29;68.36;100917.75;7354014;19;20039;-57
2023/08/10 08:07:01;;;;;;;0.00;0.00;;;;;;;21.43;68.07;100946.94;7355906;19;20038;-57
2023/08/10 08:09:27;;;;;;;0.10;0.10;;;;;;;21.44;67.86;100942.50;7355179;19;20010;-55
2023/08/10 08:11:52;;;;;;;0.10;0.10;;;;;;;21.44;68.31;100948.69;7354891;19;20042;-57
2023/08/10 08:14:17;;;;;;;0.00;0.00;;;;;;;21.43;67.92;100951.41;7355126;19;20795;-55
2023/08/10 08:16:43;;;;;;;0.10;0.10;;;;;;;21.43;68.04;100957.56;7355935;19;20014;-57
2023/08/10 08:19:08;;;;;;;0.08;0.08;;;;;;;21.44;68.13;100959.31;7357745;19;20022;-58
2023/08/10 08:21:34;;;;;;;0.10;0.10;;;;;;;21.45;67.78;100950.38;7353671;19;20029;-58
2023/08/10 08:24:00;;;;;;;0.10;0.10;;;;;;;21.49;67.27;100945.69;7354973;19;20842;-57
2023/08/10 08:26:26;;;;;;;0.10;0.10;;;;;;;21.50;67.91;100942.97;7355778;19;20014;-56
2023/08/10 08:28:53;;;;;;;0.00;0.00;;;;;;;21.54;67.84;100934.78;7354765;19;20856;-55
2023/08/10 08:31:18;;;;;;;0.10;0.10;;;;;;;21.61;67.65;100933.44;7356418;19;20386;-57
2023/08/10 08:33:44;;;;;;;0.00;0.00;;;;;;;21.67;67.61;100928.56;7354262;19;20070;-57
2023/08/10 08:36:09;;;;;;;0.03;0.03;;;;;;;21.74;67.73;100923.69;7353341;19;20066;-57
2023/08/10 08:38:37;;;;;;;0.05;0.05;;;;;;;21.82;67.38;100933.84;7355252;19;20467;-55
2023/08/10 08:41:05;;;;;;;0.00;0.00;;;;;;;21.90;67.31;100924.41;7349453;19;20014;-56
2023/08/10 08:43:31;;;;;;;0.10;0.10;;;;;;;21.97;67.32;100928.34;7355462;19;20014;-56
2023/08/10 08:45:58;;;;;;;0.10;0.10;;;;;;;22.05;66.81;100927.84;7355411;19;20050;-58
2023/08/10 08:48:27;;;;;;;0.10;0.10;;;;;;;22.12;66.37;100923.00;7356960;19;20546;-57
2023/08/10 08:50:53;;;;;;;0.10;0.10;;;;;;;22.14;66.22;100910.44;7350295;19;20010;-55
2023/08/10 08:53:18;;;;;;;0.10;0.10;;;;;;;22.18;66.30;100906.63;7354381;19;20010;-55
2023/08/10 08:55:46;;;;;;;0.10;0.10;;;;;;;22.21;66.53;100912.59;7352258;19;20038;-56
2023/08/10 08:58:11;;;;;;;;;;;;;;;22.37;65.50;100923.03;7354286;19;20014;-57
2023/08/10 09:00:39;;;;;;;0.10;0.10;;;;;;;22.40;65.82;100906.00;7347181;19;19950;-57
2023/08/10 09:03:05;;;;;;;0.10;0.10;;;;;;;22.45;65.36;100899.41;7354258;19;20022;-57
2023/08/10 09:05:31;;;;;;;0.10;0.10;;;;;;;22.50;65.17;100889.28;7351978;19;20010;-57
2023/08/10 09:07:56;;;;;;;0.10;0.10;;;;;;;22.51;64.57;100883.03;7355629;19;20029;-57
2023/08/10 09:10:22;;;;;;;0.03;0.03;;;;;;;22.51;64.36;100883.03;7355090;19;20014;-57
2023/08/10 09:12:47;;;;;;;0.10;0.10;;;;;;;22.50;64.49;100885.78;7351978;19;20018;-57
2023/08/10 09:15:16;;;;;;;0.10;0.10;;;;;;;22.54;64.60;100877.47;7354914;19;20010;-56
2023/08/10 09:17:52;;;;;;;0.10;0.10;;;;;;;22.59;64.18;100868.31;7353493;19;20010;-57
2023/08/10 09:20:25;;;;;;;0.00;0.00;;;;;;;22.61;64.42;100864.59;7354165;19;20597;-57
2023/08/10 09:22:53;;;;;;;0.10;0.10;;;;;;;22.63;64.51;100865.34;7354229;19;20749;-57
2023/08/10 09:25:18;;;;;;;0.10;0.10;;;;;;;22.73;64.64;100865.53;7352548;19;20010;-56
2023/08/10 09:27:45;;;;;;;0.03;0.03;;;;;;;22.86;64.73;100863.72;7351248;19;20481;-57
2023/08/10 09:30:11;;;;;;;0.10;0.10;;;;;;;23.03;64.69;100851.88;7352475;19;20010;-57
2023/08/10 09:32:39;;;;;;;0.10;0.10;;;;;;;23.27;64.35;100838.59;7351335;19;20454;-57
2023/08/10 09:35:05;;;;;;;0.00;0.00;;;;;;;23.48;63.77;100842.31;7354774;19;20379;-57
2023/08/10 09:37:31;;;;;;;0.00;0.00;;;;;;;23.72;63.53;100845.00;7349351;19;20018;-56
2023/08/10 09:40:00;;;;;;;0.10;0.10;;;;;;;23.91;62.06;100819.56;7352986;19;20038;-54
2023/08/10 09:42:31;;;;;;;0.00;0.00;;;;;;;24.22;62.50;100834.06;7349520;19;21433;-57
2023/08/10 09:44:58;;;;;;;0.10;0.10;;;;;;;24.37;61.58;100845.41;7353370;19;20014;-57
2023/08/10 09:47:24;;;;;;;0.10;0.10;;;;;;;24.48;61.28;100840.94;7351913;19;20019;-57
2023/08/10 09:49:58;;;;;;;0.10;0.10;;;;;;;24.71;61.12;100838.25;7354054;19;20017;-57
2023/08/10 09:52:25;;;;;;;0.10;0.10;;;;;;;24.79;60.36;100849.19;7349752;19;20017;-57
2023/08/10 09:54:53;;;;;;;0.10;0.10;;;;;;;24.89;60.55;100844.78;7354078;19;20025;-57
2023/08/10 09:57:18;;;;;;;0.10;0.10;;;;;;;25.06;59.31;100851.44;7351602;19;20014;-57
2023/08/10 09:59:45;;;;;;;0.00;0.00;;;;;;;25.18;59.47;100846.94;7351943;19;20373;-57
2023/08/10 10:02:11;;;;;;;0.10;0.10;;;;;;;25.31;58.25;100842.28;7351849;19;20682;-57
2023/08/10 10:04:38;;;;;;;0.00;0.00;;;;;;;25.40;57.87;100819.31;7351302;19;20010;-57
2023/08/10 10:07:05;;;;;;;0.10;0.10;;;;;;;25.42;57.55;100815.53;7352378;19;20015;-57
2023/08/10 10:09:33;;;;;;;0.03;0.03;;;;;;;25.48;57.60;100823.03;7353556;19;20010;-57
2023/08/10 10:12:00;;;;;;;0.00;0.00;;;;;;;25.53;57.81;100831.50;7351705;19;20011;-57
2023/08/10 10:14:27;;;;;;;0.10;0.10;;;;;;;25.58;57.96;100837.31;7353517;19;20018;-58
2023/08/10 10:16:53;;;;;;;0.10;0.10;;;;;;;25.62;56.30;100833.41;7352063;19;20021;-56
2023/08/10 10:19:19;;;;;;;0.10;0.10;;;;;;;25.67;56.17;100821.50;7338112;19;20477;-56
2023/08/10 10:21:45;;;;;;;0.10;0.10;;;;;;;25.70;56.71;100826.56;7343790;19;20017;-57
2023/08/10 10:24:13;;;;;;;0.10;0.10;;;;;;;25.79;56.92;100820.47;7353764;19;20012;-58
2023/08/10 10:26:39;;;;;;;0.00;0.00;;;;;;;25.98;56.81;100825.97;7350171;19;20480;-57
2023/08/10 10:29:16;;;;;;;0.10;0.10;;;;;;;26.30;57.76;100827.69;7355432;19;20018;-58
2023/08/10 10:31:41;;;;;;;;;;;;;;;26.61;59.21;100829.44;7352285;19;20085;-57
2023/08/10 10:34:13;;;;;;;0.00;0.00;;;;;;;26.75;56.03;100813.94;7353553;19;20038;-56
2023/08/10 10:36:38;;;;;;;0.10;0.10;;;;;;;26.98;54.25;100818.09;7352046;19;20014;-54
2023/08/10 10:39:07;;;;;;;0.00;0.00;;;;;;;27.31;54.76;100805.31;7354448;19;20028;-57
2023/08/10 10:41:37;;;;;;;0.10;0.10;;;;;;;27.50;53.31;100818.75;7351526;19;20018;-57
2023/08/10 10:44:05;;;;;;;0.10;0.10;;;;;;;27.75;51.54;100803.94;7350845;19;20055;-57
2023/08/10 10:46:33;;;;;;;0.10;0.10;;;;;;;27.97;53.32;100797.38;7351831;19;20770;-57
2023/08/10 10:48:59;;;;;;;0.05;0.05;;;;;;;28.05;51.58;100794.84;7354373;19;20025;-57
2023/08/10 10:51:26;;;;;;;0.10;0.10;;;;;;;28.21;51.83;100788.84;7351674;19;20011;-57
2023/08/10 10:53:55;;;;;;;0.00;0.00;;;;;;;28.50;51.24;100804.03;7357527;19;20026;-57
2023/08/10 10:56:21;;;;;;;0.00;0.00;;;;;;;28.62;50.01;100803.69;7360298;19;20020;-57
2023/08/10 10:58:47;;;;;;;0.00;0.00;;;;;;;28.83;49.32;100797.19;7356680;19;20030;-56
2023/08/10 11:01:18;;;;;;;0.10;0.10;;;;;;;29.06;49.24;100805.72;7356219;19;20639;-58
2023/08/10 11:03:52;;;;;;;0.10;0.10;;;;;;;29.39;49.81;100796.13;7357665;19;20082;-57
2023/08/10 11:06:20;;;;;;;0.10;0.10;;;;;;;29.47;48.47;100777.38;7356467;19;20022;-56
2023/08/10 11:08:56;;;;;;;0.00;0.00;;;;;;;29.86;48.18;100787.81;7355332;19;20441;-55
2023/08/10 11:11:22;;;;;;;0.03;0.03;;;;;;;29.94;46.42;100787.84;7358923;19;20624;-56
2023/08/10 11:13:48;;;;;;;0.00;0.00;;;;;;;30.07;46.48;100785.56;7355391;19;20130;-57
2023/08/10 11:16:14;;;;;;;0.00;0.00;;;;;;;30.27;44.88;100801.56;7357649;19;20646;-56
2023/08/10 11:18:42;;;;;;;0.03;0.03;;;;;;;30.38;45.00;100796.72;7360649;19;20100;-58
2023/08/10 11:21:08;;;;;;;0.00;0.00;;;;;;;30.56;45.69;100796.59;7355742;19;20023;-58
2023/08/10 11:23:34;;;;;;;0.00;0.00;;;;;;;30.69;45.25;100780.84;7357677;19;20375;-57